createdAt,value
2018-07-08T00:07:43.974Z,0.0
2018-07-08T00:17:58.294Z,0.0
2018-07-08T00:28:12.388Z,0.0
2018-07-08T00:38:27.022Z,0.0
2018-07-08T00:48:40.755Z,0.0
2018-07-08T00:59:27.113Z,0.0
2018-07-08T01:09:41.081Z,0.0
2018-07-08T01:19:54.846Z,0.0
2018-07-08T01:30:09.313Z,0.0
2018-07-08T01:40:23.446Z,0.0
2018-07-08T01:51:08.719Z,0.0
2018-07-08T02:01:54.535Z,0.0
2018-07-08T02:12:24.848Z,0.0
2018-07-08T02:22:36.865Z,0.0
2018-07-08T02:33:28.992Z,0.0
2018-07-08T02:45:14.147Z,4.0
2018-07-08T02:55:40.664Z,12.0
2018-07-08T03:05:54.621Z,44.0
2018-07-08T03:16:40.970Z,124.0
2018-07-08T03:27:26.784Z,276.0
2018-07-08T03:38:12.466Z,500.0
2018-07-08T03:48:26.852Z,756.0
2018-07-08T03:58:41.391Z,1020.0
2018-07-08T04:08:55.277Z,1288.0
2018-07-08T04:19:09.456Z,1540.0
2018-07-08T04:29:23.573Z,1780.0
2018-07-08T04:39:38.029Z,2004.0
2018-07-08T04:49:49.972Z,2228.0
2018-07-08T05:00:04.179Z,2492.0
2018-07-08T05:10:18.484Z,2820.0
2018-07-08T05:20:32.716Z,2996.0
2018-07-08T05:30:47.155Z,3248.0
2018-07-08T05:41:01.151Z,3436.0
2018-07-08T05:51:45.960Z,3272.0
2018-07-08T06:02:00.574Z,4048.0
2018-07-08T06:12:14.482Z,4708.0
2018-07-08T06:22:28.460Z,6976.0
2018-07-08T06:32:40.039Z,7700.0
2018-07-08T06:42:54.169Z,6716.0
2018-07-08T06:53:05.476Z,7172.0
2018-07-08T07:03:19.825Z,5276.0
2018-07-08T07:13:34.031Z,7504.0
2018-07-08T07:23:48.006Z,7208.0
2018-07-08T07:34:33.955Z,7740.0
2018-07-08T07:45:19.581Z,8404.0
2018-07-08T07:55:30.847Z,8976.0
2018-07-08T08:05:44.997Z,14080.0
2018-07-08T08:15:57.430Z,16096.0
2018-07-08T08:36:42.634Z,22848.0
2018-07-08T08:47:31.544Z,23840.0
2018-07-08T08:58:18.891Z,24736.0
2018-07-08T09:08:30.526Z,26816.0
2018-07-08T09:19:16.050Z,29184.0
2018-07-08T09:30:01.241Z,33280.0
2018-07-08T09:40:13.545Z,37696.0
2018-07-08T09:50:27.694Z,37952.0
2018-07-08T10:00:42.146Z,40480.0
2018-07-08T10:21:58.139Z,43904.0
2018-07-08T10:32:12.048Z,12676.0
2018-07-08T10:42:58.019Z,13728.0
2018-07-08T10:53:12.115Z,11972.0
2018-07-08T11:03:26.280Z,14592.0
2018-07-08T11:13:41.008Z,15456.0
2018-07-08T11:24:03.989Z,15328.0
2018-07-08T11:34:18.333Z,12336.0
2018-07-08T11:45:03.792Z,53568.0
2018-07-08T11:55:49.582Z,40512.0
2018-07-08T12:06:01.852Z,52736.0
2018-07-08T12:16:13.777Z,51104.0
2018-07-08T12:26:28.286Z,13356.0
2018-07-08T12:36:43.807Z,46080.0
2018-07-08T12:46:58.972Z,18176.0
2018-07-08T12:58:09.118Z,43104.0
2018-07-08T13:08:46.646Z,40704.0
2018-07-08T13:20:15.874Z,36384.0
2018-07-08T13:31:19.454Z,19936.0
2018-07-08T13:43:09.510Z,21184.0
2018-07-08T13:53:34.480Z,8208.0
2018-07-08T14:06:54.032Z,16960.0
2018-07-08T14:18:26.870Z,16832.0
2018-07-08T14:28:41.084Z,15552.0
2018-07-08T14:39:07.675Z,17120.0
2018-07-08T14:49:51.717Z,15328.0
2018-07-08T15:00:23.857Z,9968.0
2018-07-08T15:10:38.954Z,8864.0
2018-07-08T15:20:53.820Z,7216.0
2018-07-08T15:31:14.195Z,6988.0
2018-07-08T15:41:32.092Z,6540.0
2018-07-08T15:51:57.045Z,6500.0
2018-07-08T16:12:26.881Z,5996.0
2018-07-08T16:22:40.589Z,5784.0
2018-07-08T16:33:46.754Z,5468.0
2018-07-08T16:44:01.192Z,5272.0
2018-07-08T16:54:47.309Z,5064.0
2018-07-08T17:06:01.466Z,4760.0
2018-07-08T17:16:16.456Z,4552.0
2018-07-08T17:27:11.973Z,4308.0
2018-07-08T17:38:50.696Z,4008.0
2018-07-08T17:49:36.012Z,3652.0
2018-07-08T17:59:55.055Z,3332.0
2018-07-08T18:10:09.815Z,3008.0
2018-07-08T18:20:24.339Z,2700.0
2018-07-08T18:31:13.484Z,2340.0
2018-07-08T18:52:11.982Z,1712.0
2018-07-08T19:02:27.220Z,1400.0
2018-07-08T19:12:42.417Z,1096.0
2018-07-08T19:23:01.851Z,812.0
2018-07-08T19:33:48.469Z,516.0
2018-07-08T19:45:19.244Z,288.0
2018-07-08T19:56:04.362Z,136.0
2018-07-08T20:06:37.714Z,48.0
2018-07-08T20:16:52.277Z,12.0
2018-07-08T20:27:06.704Z,4.0
2018-07-08T20:37:18.743Z,0.0
2018-07-08T20:47:33.716Z,0.0
2018-07-08T20:57:47.804Z,0.0
2018-07-08T21:08:06.642Z,0.0
2018-07-08T21:18:18.454Z,0.0
2018-07-08T21:28:32.442Z,0.0
2018-07-08T21:38:47.903Z,0.0
2018-07-08T21:49:01.962Z,0.0
2018-07-08T21:59:47.554Z,0.0
2018-07-08T22:10:24.907Z,0.0
2018-07-08T22:20:39.132Z,0.0
2018-07-08T22:30:55.160Z,0.0
2018-07-08T22:41:12.502Z,0.0
2018-07-08T22:51:26.906Z,0.0
2018-07-08T23:01:41.150Z,0.0
2018-07-08T23:12:22.371Z,0.0
2018-07-08T23:22:36.366Z,0.0
2018-07-08T23:33:21.910Z,0.0
2018-07-08T23:43:36.364Z,0.0
2018-07-08T23:53:51.066Z,0.0
